sensor_id;sensor_type;location;lat;lon;timestamp;pressure;altitude;pressure_sealevel;temperature;humidity
11912;BME280;6016;41.928;25.556;2023-06-14T00:01:47;98707.69;;;21.73;73.56
11912;BME280;6016;41.928;25.556;2023-06-14T00:04:15;98708.28;;;21.75;73.10
11912;BME280;6016;41.928;25.556;2023-06-14T00:06:43;98713.19;;;21.78;73.43
11912;BME280;6016;41.928;25.556;2023-06-14T00:09:11;98704.09;;;21.79;73.43
11912;BME280;6016;41.928;25.556;2023-06-14T00:11:39;98706.78;;;21.79;72.96
11912;BME280;6016;41.928;25.556;2023-06-14T00:14:06;98710.88;;;21.82;72.92
11912;BME280;6016;41.928;25.556;2023-06-14T00:16:32;98517.22;;;20.59;73.26
11912;BME280;6016;41.928;25.556;2023-06-14T00:19:00;98697.66;;;21.80;73.29
11912;BME280;6016;41.928;25.556;2023-06-14T00:21:30;98696.88;;;21.80;73.49
11912;BME280;6016;41.928;25.556;2023-06-14T00:23:57;98677.59;;;21.64;73.54
11912;BME280;6016;41.928;25.556;2023-06-14T00:26:24;98695.69;;;21.75;73.47
11912;BME280;6016;41.928;25.556;2023-06-14T00:28:52;98692.38;;;21.73;73.62
11912;BME280;6016;41.928;25.556;2023-06-14T00:31:18;98643.66;;;21.32;73.90
11912;BME280;6016;41.928;25.556;2023-06-14T00:33:45;98696.34;;;21.71;73.98
11912;BME280;6016;41.928;25.556;2023-06-14T00:36:12;98696.56;;;21.69;73.50
11912;BME280;6016;41.928;25.556;2023-06-14T00:38:40;98640.97;;;21.32;74.64
11912;BME280;6016;41.928;25.556;2023-06-14T00:41:07;98568.75;;;20.87;74.54
11912;BME280;6016;41.928;25.556;2023-06-14T00:43:34;98699.88;;;21.64;74.34
11912;BME280;6016;41.928;25.556;2023-06-14T00:46:01;98698.47;;;21.62;74.68
11912;BME280;6016;41.928;25.556;2023-06-14T00:48:28;98693.31;;;21.60;74.91
11912;BME280;6016;41.928;25.556;2023-06-14T00:50:57;98687.13;;;21.60;75.50
11912;BME280;6016;41.928;25.556;2023-06-14T00:53:24;98667.41;;;21.47;75.17
11912;BME280;6016;41.928;25.556;2023-06-14T00:55:52;98622.31;;;21.19;75.56
11912;BME280;6016;41.928;25.556;2023-06-14T00:58:19;98687.75;;;21.62;75.81
11912;BME280;6016;41.928;25.556;2023-06-14T01:00:48;98688.34;;;21.64;76.17
11912;BME280;6016;41.928;25.556;2023-06-14T01:03:16;98692.66;;;21.65;75.43
11912;BME280;6016;41.928;25.556;2023-06-14T01:05:47;98689.38;;;21.63;75.27
11912;BME280;6016;41.928;25.556;2023-06-14T01:08:21;98689.00;;;21.59;75.86
11912;BME280;6016;41.928;25.556;2023-06-14T01:10:56;98681.41;;;21.56;76.03
11912;BME280;6016;41.928;25.556;2023-06-14T01:13:31;98683.25;;;21.56;76.19
11912;BME280;6016;41.928;25.556;2023-06-14T01:15:59;98680.56;;;21.56;76.47
11912;BME280;6016;41.928;25.556;2023-06-14T01:18:28;98690.50;;;21.55;76.45
11912;BME280;6016;41.928;25.556;2023-06-14T01:20:55;98685.34;;;21.54;76.85
11912;BME280;6016;41.928;25.556;2023-06-14T01:23:24;98695.22;;;21.53;76.85
11912;BME280;6016;41.928;25.556;2023-06-14T01:25:51;98541.31;;;20.59;76.91
11912;BME280;6016;41.928;25.556;2023-06-14T01:28:20;98689.28;;;21.51;77.19
11912;BME280;6016;41.928;25.556;2023-06-14T01:30:48;98662.19;;;21.34;76.33
11912;BME280;6016;41.928;25.556;2023-06-14T01:33:21;98626.75;;;21.06;76.37
11912;BME280;6016;41.928;25.556;2023-06-14T01:35:50;98681.28;;;21.44;76.49
11912;BME280;6016;41.928;25.556;2023-06-14T01:38:19;98672.84;;;21.41;77.21
11912;BME280;6016;41.928;25.556;2023-06-14T01:40:48;98686.06;;;21.42;77.17
11912;BME280;6016;41.928;25.556;2023-06-14T01:43:16;98630.75;;;20.97;77.13
11912;BME280;6016;41.928;25.556;2023-06-14T01:45:47;98683.81;;;21.39;77.42
11912;BME280;6016;41.928;25.556;2023-06-14T01:48:15;98685.09;;;21.36;77.36
11912;BME280;6016;41.928;25.556;2023-06-14T01:50:42;98664.13;;;21.27;77.43
11912;BME280;6016;41.928;25.556;2023-06-14T01:53:09;98671.53;;;21.31;77.24
11912;BME280;6016;41.928;25.556;2023-06-14T01:55:36;98672.97;;;21.27;77.84
11912;BME280;6016;41.928;25.556;2023-06-14T01:58:05;98677.38;;;21.21;78.32
11912;BME280;6016;41.928;25.556;2023-06-14T02:00:31;98673.88;;;21.21;78.30
11912;BME280;6016;41.928;25.556;2023-06-14T02:02:58;98639.25;;;20.94;78.42
11912;BME280;6016;41.928;25.556;2023-06-14T02:05:25;98672.06;;;21.15;78.58
11912;BME280;6016;41.928;25.556;2023-06-14T02:07:52;98648.88;;;21.02;79.01
11912;BME280;6016;41.928;25.556;2023-06-14T02:10:20;98656.25;;;21.06;79.27
11912;BME280;6016;41.928;25.556;2023-06-14T02:12:47;98658.28;;;21.11;79.58
11912;BME280;6016;41.928;25.556;2023-06-14T02:15:15;98674.59;;;21.10;79.35
11912;BME280;6016;41.928;25.556;2023-06-14T02:17:44;98665.94;;;21.07;79.37
11912;BME280;6016;41.928;25.556;2023-06-14T02:20:12;98471.81;;;19.81;79.17
11912;BME280;6016;41.928;25.556;2023-06-14T02:22:40;98672.78;;;21.03;79.22
11912;BME280;6016;41.928;25.556;2023-06-14T02:25:07;98675.91;;;21.00;79.59
11912;BME280;6016;41.928;25.556;2023-06-14T02:27:34;98658.47;;;20.84;79.79
11912;BME280;6016;41.928;25.556;2023-06-14T02:30:01;98680.06;;;20.96;79.88
11912;BME280;6016;41.928;25.556;2023-06-14T02:32:29;98471.75;;;19.63;80.06
11912;BME280;6016;41.928;25.556;2023-06-14T02:34:57;98676.59;;;20.89;80.25
11912;BME280;6016;41.928;25.556;2023-06-14T02:37:23;98688.59;;;20.86;80.53
11912;BME280;6016;41.928;25.556;2023-06-14T02:39:50;98668.66;;;20.69;80.35
11912;BME280;6016;41.928;25.556;2023-06-14T02:42:17;98690.44;;;20.86;80.35
11912;BME280;6016;41.928;25.556;2023-06-14T02:44:44;98694.38;;;20.83;80.42
11912;BME280;6016;41.928;25.556;2023-06-14T02:47:16;98692.31;;;20.78;81.38
11912;BME280;6016;41.928;25.556;2023-06-14T02:49:44;98707.59;;;20.78;80.93
11912;BME280;6016;41.928;25.556;2023-06-14T02:52:12;98708.22;;;20.73;80.44
11912;BME280;6016;41.928;25.556;2023-06-14T02:54:39;98556.22;;;19.84;80.34
11912;BME280;6016;41.928;25.556;2023-06-14T02:57:07;98711.31;;;20.77;79.96
11912;BME280;6016;41.928;25.556;2023-06-14T02:59:34;98713.16;;;20.76;80.00
11912;BME280;6016;41.928;25.556;2023-06-14T03:02:01;98699.75;;;20.76;79.79
11912;BME280;6016;41.928;25.556;2023-06-14T03:04:28;98704.94;;;20.71;80.06
11912;BME280;6016;41.928;25.556;2023-06-14T03:06:59;98707.03;;;20.69;80.02
11912;BME280;6016;41.928;25.556;2023-06-14T03:09:28;98711.34;;;20.70;80.14
11912;BME280;6016;41.928;25.556;2023-06-14T03:11:55;98715.47;;;20.66;79.97
11912;BME280;6016;41.928;25.556;2023-06-14T03:14:22;98717.16;;;20.67;79.97
11912;BME280;6016;41.928;25.556;2023-06-14T03:16:48;98678.72;;;20.41;80.25
11912;BME280;6016;41.928;25.556;2023-06-14T03:19:16;98723.31;;;20.67;80.56
11912;BME280;6016;41.928;25.556;2023-06-14T03:21:42;98722.50;;;20.67;80.49
11912;BME280;6016;41.928;25.556;2023-06-14T03:24:11;98723.31;;;20.67;79.93
11912;BME280;6016;41.928;25.556;2023-06-14T03:26:38;98729.50;;;20.68;79.89
11912;BME280;6016;41.928;25.556;2023-06-14T03:29:04;98726.59;;;20.70;79.72
11912;BME280;6016;41.928;25.556;2023-06-14T03:31:31;98722.88;;;20.71;79.48
11912;BME280;6016;41.928;25.556;2023-06-14T03:33:59;98723.72;;;20.71;79.71
11912;BME280;6016;41.928;25.556;2023-06-14T03:36:25;98687.38;;;20.43;79.81
11912;BME280;6016;41.928;25.556;2023-06-14T03:38:53;98724.16;;;20.68;80.33
11912;BME280;6016;41.928;25.556;2023-06-14T03:41:21;98720.84;;;20.66;80.39
11912;BME280;6016;41.928;25.556;2023-06-14T03:43:48;98727.03;;;20.66;80.85
11912;BME280;6016;41.928;25.556;2023-06-14T03:46:15;98604.38;;;19.91;80.86
11912;BME280;6016;41.928;25.556;2023-06-14T03:48:41;98728.06;;;20.65;80.59
11912;BME280;6016;41.928;25.556;2023-06-14T03:51:08;98731.34;;;20.67;80.74
11912;BME280;6016;41.928;25.556;2023-06-14T03:53:35;98723.53;;;20.66;80.77
11912;BME280;6016;41.928;25.556;2023-06-14T03:56:02;98718.59;;;20.63;80.89
11912;BME280;6016;41.928;25.556;2023-06-14T03:58:31;98703.03;;;20.46;81.01
11912;BME280;6016;41.928;25.556;2023-06-14T04:00:57;98736.72;;;20.67;80.90
11912;BME280;6016;41.928;25.556;2023-06-14T04:03:24;98747.84;;;20.71;81.12
11912;BME280;6016;41.928;25.556;2023-06-14T04:05:55;98744.13;;;20.72;80.70
11912;BME280;6016;41.928;25.556;2023-06-14T04:08:22;98652.28;;;20.19;80.88
11912;BME280;6016;41.928;25.556;2023-06-14T04:10:50;98744.28;;;20.77;81.27
11912;BME280;6016;41.928;25.556;2023-06-14T04:13:17;98754.19;;;20.77;81.57
11912;BME280;6016;41.928;25.556;2023-06-14T04:15:45;98701.78;;;20.49;81.95
11912;BME280;6016;41.928;25.556;2023-06-14T04:18:13;98687.78;;;20.40;81.87
11912;BME280;6016;41.928;25.556;2023-06-14T04:20:40;98756.63;;;20.85;81.30
11912;BME280;6016;41.928;25.556;2023-06-14T04:23:13;98730.06;;;20.77;81.12
11912;BME280;6016;41.928;25.556;2023-06-14T04:25:40;98746.69;;;20.92;81.22
11912;BME280;6016;41.928;25.556;2023-06-14T04:28:11;98672.53;;;20.47;80.78
11912;BME280;6016;41.928;25.556;2023-06-14T04:30:39;98757.78;;;21.03;80.35
11912;BME280;6016;41.928;25.556;2023-06-14T04:33:07;98742.34;;;20.98;79.74
11912;BME280;6016;41.928;25.556;2023-06-14T04:35:36;98746.66;;;20.99;80.33
11912;BME280;6016;41.928;25.556;2023-06-14T04:38:03;98770.50;;;21.14;80.80
11912;BME280;6016;41.928;25.556;2023-06-14T04:40:34;98758.78;;;21.08;80.35
11912;BME280;6016;41.928;25.556;2023-06-14T04:43:01;98776.56;;;21.28;81.17
11912;BME280;6016;41.928;25.556;2023-06-14T04:45:30;98719.28;;;20.90;79.98
11912;BME280;6016;41.928;25.556;2023-06-14T04:47:58;98729.19;;;20.90;80.09
11912;BME280;6016;41.928;25.556;2023-06-14T04:50:27;98785.19;;;21.37;79.58
11912;BME280;6016;41.928;25.556;2023-06-14T04:52:55;98794.66;;;21.40;79.48
11912;BME280;6016;41.928;25.556;2023-06-14T04:55:22;98692.09;;;20.80;79.63
11912;BME280;6016;41.928;25.556;2023-06-14T04:57:50;98788.81;;;21.49;79.94
11912;BME280;6016;41.928;25.556;2023-06-14T05:00:19;98755.81;;;21.17;79.27
11912;BME280;6016;41.928;25.556;2023-06-14T05:02:46;98800.69;;;21.60;79.86
11912;BME280;6016;41.928;25.556;2023-06-14T05:05:14;98794.47;;;21.60;79.59
11912;BME280;6016;41.928;25.556;2023-06-14T05:07:42;98804.13;;;21.74;78.92
11912;BME280;6016;41.928;25.556;2023-06-14T05:10:09;98802.03;;;21.76;78.13
11912;BME280;6016;41.928;25.556;2023-06-14T05:12:36;98808.16;;;21.84;78.83
11912;BME280;6016;41.928;25.556;2023-06-14T05:15:04;98816.72;;;21.92;78.74
11912;BME280;6016;41.928;25.556;2023-06-14T05:17:31;98821.22;;;21.99;77.87
11912;BME280;6016;41.928;25.556;2023-06-14T05:19:58;98816.00;;;22.04;78.72
11912;BME280;6016;41.928;25.556;2023-06-14T05:22:24;98777.41;;;21.80;76.62
11912;BME280;6016;41.928;25.556;2023-06-14T05:24:52;98802.22;;;22.00;75.96
11912;BME280;6016;41.928;25.556;2023-06-14T05:27:19;98818.03;;;22.09;76.25
11912;BME280;6016;41.928;25.556;2023-06-14T05:29:46;98817.16;;;22.15;77.50
11912;BME280;6016;41.928;25.556;2023-06-14T05:32:13;98822.47;;;22.22;78.10
11912;BME280;6016;41.928;25.556;2023-06-14T05:34:40;98819.69;;;22.28;77.73
11912;BME280;6016;41.928;25.556;2023-06-14T05:37:08;98828.72;;;22.34;77.79
11912;BME280;6016;41.928;25.556;2023-06-14T05:39:35;98823.50;;;22.39;77.87
11912;BME280;6016;41.928;25.556;2023-06-14T05:42:04;98831.72;;;22.44;78.65
11912;BME280;6016;41.928;25.556;2023-06-14T05:44:31;98836.84;;;22.46;77.54
11912;BME280;6016;41.928;25.556;2023-06-14T05:46:58;98840.81;;;22.43;75.64
11912;BME280;6016;41.928;25.556;2023-06-14T05:49:25;98835.00;;;22.46;76.33
11912;BME280;6016;41.928;25.556;2023-06-14T05:51:52;98831.88;;;22.50;75.99
11912;BME280;6016;41.928;25.556;2023-06-14T05:54:18;98820.22;;;22.37;75.46
11912;BME280;6016;41.928;25.556;2023-06-14T05:56:45;98841.72;;;22.56;76.30
11912;BME280;6016;41.928;25.556;2023-06-14T05:59:14;98841.91;;;22.61;75.70
11912;BME280;6016;41.928;25.556;2023-06-14T06:01:40;98839.59;;;22.65;75.10
11912;BME280;6016;41.928;25.556;2023-06-14T06:04:07;98845.09;;;22.70;76.10
11912;BME280;6016;41.928;25.556;2023-06-14T06:06:34;98840.22;;;22.79;76.90
11912;BME280;6016;41.928;25.556;2023-06-14T06:09:01;98848.88;;;22.81;75.09
11912;BME280;6016;41.928;25.556;2023-06-14T06:11:27;98845.50;;;22.85;75.46
11912;BME280;6016;41.928;25.556;2023-06-14T06:13:54;98853.59;;;22.85;75.21
11912;BME280;6016;41.928;25.556;2023-06-14T06:16:22;98850.16;;;22.78;73.20
11912;BME280;6016;41.928;25.556;2023-06-14T06:18:49;98847.78;;;22.70;74.14
11912;BME280;6016;41.928;25.556;2023-06-14T06:21:16;98843.91;;;22.66;74.58
11912;BME280;6016;41.928;25.556;2023-06-14T06:23:43;98844.00;;;22.59;75.65
11912;BME280;6016;41.928;25.556;2023-06-14T06:26:09;98838.44;;;22.54;75.76
11912;BME280;6016;41.928;25.556;2023-06-14T06:28:36;98849.97;;;22.61;76.82
11912;BME280;6016;41.928;25.556;2023-06-14T06:31:03;98842.94;;;22.60;77.21
11912;BME280;6016;41.928;25.556;2023-06-14T06:33:32;98853.16;;;22.70;77.03
11912;BME280;6016;41.928;25.556;2023-06-14T06:35:58;98856.09;;;22.50;79.23
11912;BME280;6016;41.928;25.556;2023-06-14T06:38:25;98826.66;;;22.55;78.27
11912;BME280;6016;41.928;25.556;2023-06-14T06:40:52;98762.44;;;22.09;77.21
11912;BME280;6016;41.928;25.556;2023-06-14T06:43:19;98849.72;;;22.81;77.64
11912;BME280;6016;41.928;25.556;2023-06-14T06:45:46;98852.63;;;22.80;77.08
11912;BME280;6016;41.928;25.556;2023-06-14T06:48:13;98854.16;;;22.87;76.48
11912;BME280;6016;41.928;25.556;2023-06-14T06:50:42;98859.78;;;22.86;76.16
11912;BME280;6016;41.928;25.556;2023-06-14T06:53:09;98702.97;;;22.05;75.85
11912;BME280;6016;41.928;25.556;2023-06-14T06:55:36;98861.16;;;23.07;74.18
11912;BME280;6016;41.928;25.556;2023-06-14T06:58:02;98857.94;;;23.17;73.90
11912;BME280;6016;41.928;25.556;2023-06-14T07:00:30;98859.88;;;23.28;74.06
11912;BME280;6016;41.928;25.556;2023-06-14T07:02:57;98857.50;;;23.20;68.79
11912;BME280;6016;41.928;25.556;2023-06-14T07:05:24;98860.03;;;23.34;70.26
11912;BME280;6016;41.928;25.556;2023-06-14T07:07:52;98859.31;;;23.38;68.79
11912;BME280;6016;41.928;25.556;2023-06-14T07:10:19;98861.91;;;23.45;70.28
11912;BME280;6016;41.928;25.556;2023-06-14T07:12:46;98857.47;;;23.51;71.39
11912;BME280;6016;41.928;25.556;2023-06-14T07:15:13;98860.66;;;23.59;72.62
11912;BME280;6016;41.928;25.556;2023-06-14T07:17:40;98863.00;;;23.68;72.38
11912;BME280;6016;41.928;25.556;2023-06-14T07:20:08;98863.38;;;23.71;71.63
11912;BME280;6016;41.928;25.556;2023-06-14T07:22:38;98781.63;;;23.11;69.94
11912;BME280;6016;41.928;25.556;2023-06-14T07:25:08;98866.78;;;23.79;68.96
11912;BME280;6016;41.928;25.556;2023-06-14T07:27:35;98862.44;;;23.89;69.79
11912;BME280;6016;41.928;25.556;2023-06-14T07:30:02;98863.50;;;23.88;69.33
11912;BME280;6016;41.928;25.556;2023-06-14T07:32:29;98854.16;;;24.03;71.31
11912;BME280;6016;41.928;25.556;2023-06-14T07:34:55;98813.16;;;23.89;68.83
11912;BME280;6016;41.928;25.556;2023-06-14T07:37:22;98859.19;;;24.23;68.59
11912;BME280;6016;41.928;25.556;2023-06-14T07:39:49;98856.38;;;24.42;67.20
11912;BME280;6016;41.928;25.556;2023-06-14T07:42:17;98859.25;;;24.64;67.69
11912;BME280;6016;41.928;25.556;2023-06-14T07:44:44;98865.75;;;24.92;65.14
11912;BME280;6016;41.928;25.556;2023-06-14T07:47:11;98860.66;;;25.08;65.30
11912;BME280;6016;41.928;25.556;2023-06-14T07:49:38;98868.41;;;25.33;63.37
11912;BME280;6016;41.928;25.556;2023-06-14T07:52:05;98841.03;;;25.59;63.26
11912;BME280;6016;41.928;25.556;2023-06-14T07:54:32;98858.78;;;26.06;63.82
11912;BME280;6016;41.928;25.556;2023-06-14T07:56:59;98820.66;;;25.68;59.93
11912;BME280;6016;41.928;25.556;2023-06-14T07:59:27;98861.00;;;25.92;60.91
11912;BME280;6016;41.928;25.556;2023-06-14T08:01:54;98850.78;;;25.60;60.51
11912;BME280;6016;41.928;25.556;2023-06-14T08:04:21;98821.50;;;25.39;61.89
11912;BME280;6016;41.928;25.556;2023-06-14T08:06:49;98853.91;;;25.51;62.49
11912;BME280;6016;41.928;25.556;2023-06-14T08:09:16;98849.28;;;25.35;63.10
11912;BME280;6016;41.928;25.556;2023-06-14T08:11:42;98872.81;;;25.51;63.18
11912;BME280;6016;41.928;25.556;2023-06-14T08:14:09;98803.81;;;25.14;62.82
11912;BME280;6016;41.928;25.556;2023-06-14T08:16:37;98839.03;;;25.37;61.47
11912;BME280;6016;41.928;25.556;2023-06-14T08:19:04;98795.22;;;25.00;63.08
11912;BME280;6016;41.928;25.556;2023-06-14T08:21:31;98869.59;;;25.54;62.19
11912;BME280;6016;41.928;25.556;2023-06-14T08:23:59;98872.94;;;25.45;61.67
11912;BME280;6016;41.928;25.556;2023-06-14T08:26:26;98871.56;;;25.59;63.39
11912;BME280;6016;41.928;25.556;2023-06-14T08:28:54;98870.84;;;25.81;62.31
11912;BME280;6016;41.928;25.556;2023-06-14T08:31:21;98859.63;;;25.89;59.45
11912;BME280;6016;41.928;25.556;2023-06-14T08:33:50;98841.44;;;25.84;60.50
11912;BME280;6016;41.928;25.556;2023-06-14T08:36:17;98875.59;;;26.25;61.55
11912;BME280;6016;41.928;25.556;2023-06-14T08:38:44;98878.00;;;26.44;57.74
11912;BME280;6016;41.928;25.556;2023-06-14T08:41:11;98881.03;;;26.47;58.70
11912;BME280;6016;41.928;25.556;2023-06-14T08:43:39;98859.72;;;26.51;59.92
11912;BME280;6016;41.928;25.556;2023-06-14T08:46:06;98880.69;;;26.66;57.39
11912;BME280;6016;41.928;25.556;2023-06-14T08:48:34;98889.88;;;26.43;58.24
11912;BME280;6016;41.928;25.556;2023-06-14T08:51:03;98887.47;;;26.24;60.42
11912;BME280;6016;41.928;25.556;2023-06-14T08:53:32;98885.97;;;26.16;60.20
11912;BME280;6016;41.928;25.556;2023-06-14T08:55:59;98836.50;;;25.98;61.95
11912;BME280;6016;41.928;25.556;2023-06-14T08:58:27;98883.03;;;26.35;58.25
11912;BME280;6016;41.928;25.556;2023-06-14T09:00:55;98887.59;;;26.34;60.60
11912;BME280;6016;41.928;25.556;2023-06-14T09:03:22;98880.88;;;26.37;59.72
11912;BME280;6016;41.928;25.556;2023-06-14T09:05:56;98880.50;;;26.28;59.08
11912;BME280;6016;41.928;25.556;2023-06-14T09:08:25;98848.72;;;26.18;59.38
11912;BME280;6016;41.928;25.556;2023-06-14T09:10:53;98891.34;;;26.73;60.62
11912;BME280;6016;41.928;25.556;2023-06-14T09:13:20;98849.31;;;26.65;59.39
11912;BME280;6016;41.928;25.556;2023-06-14T09:15:47;98887.44;;;27.08;59.84
11912;BME280;6016;41.928;25.556;2023-06-14T09:18:13;98879.47;;;27.23;59.59
11912;BME280;6016;41.928;25.556;2023-06-14T09:20:40;98887.13;;;27.04;54.08
11912;BME280;6016;41.928;25.556;2023-06-14T09:23:07;98872.16;;;26.96;59.38
11912;BME280;6016;41.928;25.556;2023-06-14T09:25:43;98880.06;;;27.26;57.12
11912;BME280;6016;41.928;25.556;2023-06-14T09:28:10;98841.69;;;27.06;54.18
11912;BME280;6016;41.928;25.556;2023-06-14T09:30:37;98874.78;;;27.14;52.40
11912;BME280;6016;41.928;25.556;2023-06-14T09:33:04;98878.16;;;27.26;54.30
11912;BME280;6016;41.928;25.556;2023-06-14T09:35:31;98861.72;;;27.60;58.11
11912;BME280;6016;41.928;25.556;2023-06-14T09:37:58;98860.81;;;27.82;56.78
11912;BME280;6016;41.928;25.556;2023-06-14T09:40:25;98844.22;;;27.78;54.08
11912;BME280;6016;41.928;25.556;2023-06-14T09:42:53;98860.06;;;27.97;55.05
11912;BME280;6016;41.928;25.556;2023-06-14T09:45:20;98856.84;;;28.00;54.85
11912;BME280;6016;41.928;25.556;2023-06-14T09:47:49;98818.06;;;27.62;53.57
11912;BME280;6016;41.928;25.556;2023-06-14T09:50:16;98842.16;;;27.96;56.60
11912;BME280;6016;41.928;25.556;2023-06-14T09:52:44;98849.19;;;27.92;53.85
11912;BME280;6016;41.928;25.556;2023-06-14T09:55:12;98849.66;;;27.78;49.74
11912;BME280;6016;41.928;25.556;2023-06-14T09:57:41;98756.59;;;26.97;50.88
11912;BME280;6016;41.928;25.556;2023-06-14T10:00:13;98729.50;;;26.69;51.93
11912;BME280;6016;41.928;25.556;2023-06-14T10:02:42;98849.84;;;27.12;53.49
11912;BME280;6016;41.928;25.556;2023-06-14T10:05:15;98818.09;;;27.02;54.52
11912;BME280;6016;41.928;25.556;2023-06-14T10:07:48;98837.50;;;27.21;52.40
11912;BME280;6016;41.928;25.556;2023-06-14T10:10:15;98834.81;;;27.26;55.36
11912;BME280;6016;41.928;25.556;2023-06-14T10:12:42;98820.97;;;27.22;53.15
11912;BME280;6016;41.928;25.556;2023-06-14T10:15:17;98835.53;;;27.44;54.26
11912;BME280;6016;41.928;25.556;2023-06-14T10:17:49;98837.31;;;27.60;54.31
11912;BME280;6016;41.928;25.556;2023-06-14T10:20:27;98828.72;;;27.69;52.94
11912;BME280;6016;41.928;25.556;2023-06-14T10:23:00;98834.31;;;27.57;53.86
11912;BME280;6016;41.928;25.556;2023-06-14T10:25:29;98836.00;;;27.63;52.72
11912;BME280;6016;41.928;25.556;2023-06-14T10:28:03;98819.16;;;27.61;52.25
11912;BME280;6016;41.928;25.556;2023-06-14T10:30:32;98823.94;;;27.81;52.29
11912;BME280;6016;41.928;25.556;2023-06-14T10:33:06;98821.94;;;27.71;53.50
11912;BME280;6016;41.928;25.556;2023-06-14T10:35:33;98787.22;;;27.63;52.70
11912;BME280;6016;41.928;25.556;2023-06-14T10:38:07;98820.72;;;27.89;52.89
11912;BME280;6016;41.928;25.556;2023-06-14T10:40:34;98818.91;;;27.62;53.03
11912;BME280;6016;41.928;25.556;2023-06-14T10:43:21;98787.53;;;27.39;51.25
11912;BME280;6016;41.928;25.556;2023-06-14T10:46:18;98827.34;;;27.66;53.30
11912;BME280;6016;41.928;25.556;2023-06-14T10:48:48;98819.22;;;27.66;53.24
11912;BME280;6016;41.928;25.556;2023-06-14T10:51:17;98814.97;;;27.80;54.81
11912;BME280;6016;41.928;25.556;2023-06-14T10:53:46;98816.19;;;28.00;52.04
11912;BME280;6016;41.928;25.556;2023-06-14T10:56:23;98815.41;;;28.10;51.25
11912;BME280;6016;41.928;25.556;2023-06-14T10:58:51;98818.84;;;27.95;52.07
11912;BME280;6016;41.928;25.556;2023-06-14T11:01:32;98811.72;;;27.84;53.63
11912;BME280;6016;41.928;25.556;2023-06-14T11:04:07;98820.69;;;27.84;51.79
11912;BME280;6016;41.928;25.556;2023-06-14T11:06:45;98815.72;;;27.71;53.16
11912;BME280;6016;41.928;25.556;2023-06-14T11:09:50;98812.31;;;27.53;53.13
11912;BME280;6016;41.928;25.556;2023-06-14T11:12:20;98777.47;;;27.34;52.45
11912;BME280;6016;41.928;25.556;2023-06-14T11:14:50;98800.00;;;27.73;52.58
11912;BME280;6016;41.928;25.556;2023-06-14T11:17:18;98806.06;;;27.52;53.16
11912;BME280;6016;41.928;25.556;2023-06-14T11:19:45;98801.66;;;27.46;53.68
11912;BME280;6016;41.928;25.556;2023-06-14T11:22:12;98797.88;;;27.47;53.34
11912;BME280;6016;41.928;25.556;2023-06-14T11:24:40;98801.03;;;27.66;53.50
11912;BME280;6016;41.928;25.556;2023-06-14T11:27:06;98304.53;;;24.70;53.39
11912;BME280;6016;41.928;25.556;2023-06-14T11:29:34;98792.56;;;27.96;53.78
11912;BME280;6016;41.928;25.556;2023-06-14T11:32:01;98791.00;;;28.10;51.81
11912;BME280;6016;41.928;25.556;2023-06-14T11:34:29;98720.88;;;27.76;53.82
11912;BME280;6016;41.928;25.556;2023-06-14T11:36:56;98791.41;;;28.34;52.13
11912;BME280;6016;41.928;25.556;2023-06-14T11:39:24;98679.06;;;27.56;50.05
11912;BME280;6016;41.928;25.556;2023-06-14T11:41:52;98784.66;;;27.89;52.90
11912;BME280;6016;41.928;25.556;2023-06-14T11:44:20;98747.47;;;27.08;56.07
11912;BME280;6016;41.928;25.556;2023-06-14T11:46:47;98787.25;;;27.08;56.07
11912;BME280;6016;41.928;25.556;2023-06-14T11:49:15;98787.03;;;27.09;56.00
11912;BME280;6016;41.928;25.556;2023-06-14T11:51:44;98788.03;;;27.03;56.51
11912;BME280;6016;41.928;25.556;2023-06-14T11:54:11;98748.78;;;27.01;54.13
11912;BME280;6016;41.928;25.556;2023-06-14T11:56:38;98748.50;;;27.35;53.25
11912;BME280;6016;41.928;25.556;2023-06-14T11:59:05;98764.16;;;27.60;51.51
11912;BME280;6016;41.928;25.556;2023-06-14T12:01:35;98795.50;;;27.89;51.84
11912;BME280;6016;41.928;25.556;2023-06-14T12:04:02;98774.16;;;28.03;52.42
11912;BME280;6016;41.928;25.556;2023-06-14T12:06:30;98783.97;;;28.14;51.85
11912;BME280;6016;41.928;25.556;2023-06-14T12:09:05;98776.47;;;28.27;50.79
11912;BME280;6016;41.928;25.556;2023-06-14T12:11:36;98782.97;;;28.31;51.69
11912;BME280;6016;41.928;25.556;2023-06-14T12:14:03;98724.19;;;27.83;51.16
11912;BME280;6016;41.928;25.556;2023-06-14T12:16:31;98771.38;;;27.92;50.74
11912;BME280;6016;41.928;25.556;2023-06-14T12:19:01;98780.22;;;27.72;52.33
11912;BME280;6016;41.928;25.556;2023-06-14T12:21:28;98765.31;;;27.37;55.50
11912;BME280;6016;41.928;25.556;2023-06-14T12:23:55;98728.59;;;26.86;54.13
11912;BME280;6016;41.928;25.556;2023-06-14T12:26:24;98759.84;;;27.32;52.95
11912;BME280;6016;41.928;25.556;2023-06-14T12:28:52;98757.91;;;27.27;53.80
11912;BME280;6016;41.928;25.556;2023-06-14T12:31:19;98746.34;;;27.04;53.74
11912;BME280;6016;41.928;25.556;2023-06-14T12:33:46;98761.59;;;27.16;52.75
11912;BME280;6016;41.928;25.556;2023-06-14T12:36:14;98767.44;;;27.35;52.65
11912;BME280;6016;41.928;25.556;2023-06-14T12:38:42;98756.81;;;27.56;52.19
11912;BME280;6016;41.928;25.556;2023-06-14T12:41:09;98751.38;;;27.56;50.08
11912;BME280;6016;41.928;25.556;2023-06-14T12:43:37;98747.28;;;27.53;52.65
11912;BME280;6016;41.928;25.556;2023-06-14T12:46:04;98745.31;;;27.48;53.64
11912;BME280;6016;41.928;25.556;2023-06-14T12:48:31;98741.38;;;27.56;51.45
11912;BME280;6016;41.928;25.556;2023-06-14T12:50:59;98701.72;;;27.50;51.92
11912;BME280;6016;41.928;25.556;2023-06-14T12:53:26;98717.06;;;27.72;52.14
11912;BME280;6016;41.928;25.556;2023-06-14T12:55:53;98736.41;;;27.91;51.81
11912;BME280;6016;41.928;25.556;2023-06-14T12:58:20;98737.97;;;27.76;53.21
11912;BME280;6016;41.928;25.556;2023-06-14T13:00:50;98730.31;;;27.63;52.18
11912;BME280;6016;41.928;25.556;2023-06-14T13:03:17;98742.16;;;27.57;51.55
11912;BME280;6016;41.928;25.556;2023-06-14T13:05:44;98723.75;;;27.54;52.56